Time;durP1;ratioP1;P1;durP2;ratioP2;P2;SDS_P1;SDS_P2;PMS_P1;PMS_P2;Temp;Humidity;BMP_temperature;BMP_pressure;BME280_temperature;BME280_humidity;BME280_pressure;Samples;Min_cycle;Max_cycle;Signal;HPM_P1;HPM_P2
2022/05/07 00:00:27;;;;;;;4.93;2.58;;;;;;;16.66;60.80;101236.66;2083395;28;20052;-71
2022/05/07 00:01:49;;;;;;;6.35;2.85;;;;;;;16.65;60.86;101232.22;2087552;28;20033;-71
2022/05/07 00:03:11;;;;;;;4.20;2.00;;;;;;;16.65;60.92;101233.09;2077673;28;20049;-71
2022/05/07 00:04:34;;;;;;;5.93;2.78;;;;;;;16.66;60.97;101236.66;2084713;28;20073;-71
2022/05/07 00:05:57;;;;;;;7.35;2.60;;;;;;;16.64;61.09;101235.78;2086390;28;20037;-70
2022/05/07 00:07:21;;;;;;;11.18;2.85;;;;;;;16.63;61.12;101240.22;2095921;28;20052;-71
2022/05/07 00:08:44;;;;;;;9.30;2.78;;;;;;;16.60;61.13;101247.34;2075015;28;20045;-71
2022/05/07 00:10:08;;;;;;;6.90;2.60;;;;;;;16.59;61.35;101243.75;2088934;28;20071;-70
2022/05/07 00:11:30;;;;;;;7.70;2.80;;;;;;;16.56;61.37;101238.41;2090060;28;20041;-71
2022/05/07 00:12:53;;;;;;;6.00;2.40;;;;;;;16.54;61.50;101239.31;2089800;28;20049;-71
2022/05/07 00:14:16;;;;;;;6.78;2.70;;;;;;;16.53;61.60;101233.09;2078785;28;20060;-71
2022/05/07 00:15:38;;;;;;;5.60;2.60;;;;;;;16.51;61.76;101233.97;2091545;28;20044;-70
2022/05/07 00:18:39;;;;;;;3.88;1.65;;;;;;;16.50;61.96;101242.84;2082082;28;20154;-71
2022/05/07 00:20:02;;;;;;;5.68;2.45;;;;;;;16.48;62.10;101233.97;2077095;28;20581;-71
2022/05/07 00:21:25;;;;;;;9.15;2.78;;;;;;;16.46;62.04;101230.44;2076669;28;20475;-71
2022/05/07 00:22:49;;;;;;;5.15;2.25;;;;;;;16.40;62.25;101223.34;2083807;28;20044;-71
2022/05/07 00:24:11;;;;;;;7.35;2.28;;;;;;;16.34;62.38;101220.69;2088085;28;20049;-71
2022/05/07 00:25:33;;;;;;;6.65;2.78;;;;;;;16.33;62.39;101218.91;2076977;28;20057;-70
2022/05/07 00:26:55;;;;;;;5.05;2.55;;;;;;;16.28;62.43;101215.31;2076411;28;20050;-71
2022/05/07 00:28:18;;;;;;;5.90;2.30;;;;;;;16.24;62.67;101219.78;2081962;28;20522;-71
2022/05/07 00:29:40;;;;;;;5.93;2.17;;;;;;;16.22;62.85;101218.00;2083519;28;20052;-70
2022/05/07 00:31:03;;;;;;;4.65;2.30;;;;;;;16.23;62.88;101218.00;2081525;28;20049;-71
2022/05/07 00:32:24;;;;;;;6.22;2.53;;;;;;;16.23;62.95;101214.44;2079060;28;20053;-71
2022/05/07 00:33:47;;;;;;;7.63;2.65;;;;;;;16.24;62.89;101208.22;2078549;28;20056;-71
2022/05/07 00:35:11;;;;;;;8.85;2.95;;;;;;;16.26;62.99;101215.34;2079309;28;20106;-71
2022/05/07 00:36:33;;;;;;;5.93;2.78;;;;;;;16.28;62.83;101221.53;2076346;28;20049;-71
2022/05/07 00:37:57;;;;;;;7.80;2.78;;;;;;;16.25;62.73;101216.22;2083623;28;20048;-71
2022/05/07 00:39:18;;;;;;;5.65;2.67;;;;;;;16.20;62.86;101226.00;2086636;28;20095;-71
2022/05/07 00:40:41;;;;;;;5.30;2.50;;;;;;;16.19;62.96;101223.34;2084890;28;20044;-71
2022/05/07 00:42:05;;;;;;;8.35;2.60;;;;;;;16.18;62.93;101222.44;2087817;28;20530;-71
2022/05/07 00:43:35;;;;;;;7.80;2.72;;;;;;;16.19;63.00;101223.34;2093360;28;20090;-71
2022/05/07 00:44:58;;;;;;;3.97;2.08;;;;;;;16.16;62.92;101231.31;2074677;28;20058;-70
2022/05/07 00:46:22;;;;;;;8.00;2.20;;;;;;;16.17;63.02;101230.44;2084204;28;20429;-71
2022/05/07 00:47:45;;;;;;;5.28;2.20;;;;;;;16.14;63.03;101241.09;2082547;28;20045;-71
2022/05/07 00:49:08;;;;;;;5.95;2.38;;;;;;;16.16;63.06;101242.84;2085670;28;20052;-70
2022/05/07 00:52:10;;;;;;;5.78;2.63;;;;;;;16.09;63.12;101243.75;2075275;28;20390;-71
2022/05/07 00:53:34;;;;;;;5.53;2.40;;;;;;;16.08;63.17;101244.63;2085063;28;20053;-71
2022/05/07 00:54:58;;;;;;;2.72;1.70;;;;;;;16.06;63.11;101238.44;2077079;28;20072;-71
2022/05/07 00:56:19;;;;;;;5.65;2.38;;;;;;;16.07;63.12;101236.66;2086802;28;20049;-71
2022/05/07 00:57:42;;;;;;;10.30;2.58;;;;;;;16.08;63.03;101238.44;2078872;28;20092;-71
2022/05/07 00:59:05;;;;;;;8.32;2.42;;;;;;;16.07;62.91;101234.88;2072887;28;20064;-71
2022/05/07 01:00:27;;;;;;;5.72;2.20;;;;;;;16.06;62.75;101245.53;2082881;28;20090;-71
2022/05/07 01:01:49;;;;;;;4.97;2.28;;;;;;;16.05;62.61;101246.41;2086282;28;20043;-71
2022/05/07 01:03:11;;;;;;;7.90;2.65;;;;;;;15.99;62.76;101249.97;2071455;28;20503;-70
2022/05/07 01:04:34;;;;;;;5.20;2.25;;;;;;;15.97;62.89;101245.50;2072558;28;20056;-70
2022/05/07 01:05:57;;;;;;;5.68;2.05;;;;;;;15.99;62.87;101244.63;2078594;28;20131;-71
2022/05/07 01:07:19;;;;;;;6.68;2.30;;;;;;;16.00;62.66;101241.09;2086644;28;20057;-70
2022/05/07 01:08:43;;;;;;;12.52;2.58;;;;;;;16.01;62.53;101240.22;2085554;28;20098;-71
2022/05/07 01:10:07;;;;;;;6.75;2.55;;;;;;;16.02;62.42;101244.63;2078654;28;20053;-71
2022/05/07 01:11:32;;;;;;;5.85;2.28;;;;;;;16.05;62.39;101243.75;2079050;28;20049;-71
2022/05/07 01:12:56;;;;;;;7.63;2.00;;;;;;;16.05;62.17;101246.41;2070946;28;20140;-71
2022/05/07 01:14:19;;;;;;;11.32;2.83;;;;;;;16.05;62.02;101249.97;2080826;28;20060;-70
2022/05/07 01:15:44;;;;;;;8.88;2.50;;;;;;;16.03;61.88;101251.72;2072411;28;20061;-71
2022/05/07 01:17:07;;;;;;;4.03;2.13;;;;;;;15.97;62.00;101249.06;2076727;28;20495;-70
2022/05/07 01:18:30;;;;;;;4.40;2.00;;;;;;;15.93;62.06;101248.19;2087274;28;20056;-71
2022/05/07 01:19:54;;;;;;;;;;;;;;;15.96;61.99;101241.94;2077094;28;20049;-71
2022/05/07 01:21:19;;;;;;;4.85;2.30;;;;;;;15.97;61.96;101242.84;2079790;28;19947;-71
2022/05/07 01:22:47;;;;;;;6.00;2.53;;;;;;;16.00;61.78;101234.88;2070600;28;20053;-71
2022/05/07 01:24:15;;;;;;;3.53;1.77;;;;;;;15.97;61.71;101233.06;2078559;28;20414;-70
2022/05/07 01:25:37;;;;;;;6.55;1.73;;;;;;;15.95;61.69;101240.16;2078775;28;20106;-71
2022/05/07 01:27:00;;;;;;;4.65;2.45;;;;;;;15.95;61.71;101240.16;2070673;28;20049;-70
2022/05/07 01:28:22;;;;;;;8.30;2.70;;;;;;;15.94;61.65;101235.75;2073640;28;20065;-70
2022/05/07 01:29:44;;;;;;;8.05;1.85;;;;;;;15.94;61.56;101239.31;2083831;28;20055;-70
2022/05/07 01:31:08;;;;;;;4.63;2.03;;;;;;;15.95;61.49;101238.41;2080340;28;20037;-71
2022/05/07 01:32:29;;;;;;;7.78;2.67;;;;;;;15.94;61.34;101235.75;2084410;28;20057;-71
2022/05/07 01:33:52;;;;;;;3.97;2.03;;;;;;;15.93;61.35;101244.63;2080298;28;20051;-71
2022/05/07 01:35:13;;;;;;;5.18;2.25;;;;;;;15.94;61.35;101244.63;2085409;28;20041;-71
2022/05/07 01:36:40;;;;;;;5.90;2.15;;;;;;;15.97;61.24;101248.16;2087864;28;20049;-71
2022/05/07 01:38:08;;;;;;;7.45;3.17;;;;;;;15.93;61.28;101249.94;2076138;28;20788;-70
2022/05/07 01:39:33;;;;;;;5.45;2.20;;;;;;;15.92;61.27;101249.06;2085271;28;20395;-71
2022/05/07 01:40:56;;;;;;;4.43;1.73;;;;;;;15.93;61.26;101245.50;2072607;28;20088;-70
2022/05/07 01:42:19;;;;;;;6.90;2.03;;;;;;;15.94;60.91;101249.06;2084165;28;20036;-71
2022/05/07 01:43:41;;;;;;;6.28;1.80;;;;;;;15.94;60.98;101257.94;2076907;28;20045;-71
2022/05/07 01:45:03;;;;;;;4.78;2.05;;;;;;;15.97;60.81;101253.50;2078365;28;20048;-70
2022/05/07 01:48:13;;;;;;;;;;;;;;;15.91;60.27;101260.59;2082236;28;20432;-71
2022/05/07 01:49:45;;;;;;;3.67;2.00;;;;;;;15.89;60.24;101261.47;2072304;28;19925;-70
2022/05/07 01:51:09;;;;;;;4.72;2.00;;;;;;;15.90;59.89;101261.47;2083714;28;20072;-70
2022/05/07 01:52:33;;;;;;;4.72;2.03;;;;;;;15.92;59.63;101262.38;2082815;28;20531;-71
2022/05/07 01:53:55;;;;;;;4.78;1.83;;;;;;;15.86;59.59;101259.69;2070337;28;20507;-71
2022/05/07 01:55:18;;;;;;;5.65;1.77;;;;;;;15.84;59.47;101261.47;2076087;28;20060;-71
2022/05/07 01:56:43;;;;;;;7.53;1.88;;;;;;;15.80;59.38;101262.34;2079209;28;20053;-70
2022/05/07 01:58:07;;;;;;;2.72;1.77;;;;;;;15.78;59.41;101263.22;2077314;28;20045;-71
2022/05/07 01:59:28;;;;;;;3.00;1.65;;;;;;;15.76;59.29;101268.53;2073320;28;20060;-71
2022/05/07 02:00:54;;;;;;;3.58;1.83;;;;;;;15.77;59.19;101270.31;2072598;28;20089;-71
2022/05/07 02:02:15;;;;;;;7.68;2.00;;;;;;;15.79;59.14;101270.34;2075661;28;20531;-70
2022/05/07 02:03:38;;;;;;;;;;;;;;;15.80;58.87;101254.38;2075376;28;20053;-70
2022/05/07 02:05:01;;;;;;;6.53;1.77;;;;;;;15.76;58.83;101263.22;2080517;28;20417;-70
2022/05/07 02:06:23;;;;;;;7.75;1.90;;;;;;;15.76;58.68;101257.00;2070168;28;20464;-71
2022/05/07 02:07:46;;;;;;;4.20;1.92;;;;;;;15.75;58.64;101261.44;2089139;28;20135;-71
2022/05/07 02:09:11;;;;;;;3.08;1.45;;;;;;;15.69;58.69;101264.09;2081111;28;20778;-70
2022/05/07 02:10:34;;;;;;;4.97;1.65;;;;;;;15.68;58.76;101262.34;2074146;28;20072;-72
2022/05/07 02:11:56;;;;;;;3.30;1.33;;;;;;;15.67;58.71;101265.88;2069922;28;20049;-71
2022/05/07 02:13:19;;;;;;;;;;;;;;;15.70;58.59;101265.88;2076840;28;20056;-71
2022/05/07 02:14:42;;;;;;;5.25;1.83;;;;;;;15.66;58.56;101263.19;2077363;28;19928;-70
2022/05/07 02:16:05;;;;;;;5.18;1.70;;;;;;;15.65;58.63;101262.31;2070144;28;20514;-71
2022/05/07 02:17:27;;;;;;;5.45;1.92;;;;;;;15.66;58.45;101257.88;2084075;28;20053;-70
2022/05/07 02:18:50;;;;;;;3.17;1.80;;;;;;;15.68;58.35;101258.78;2072494;28;20045;-71
2022/05/07 02:20:13;;;;;;;3.22;1.70;;;;;;;15.69;58.28;101250.78;2078229;28;20144;-70
2022/05/07 02:21:35;;;;;;;4.22;1.90;;;;;;;15.71;58.19;101257.00;2072746;28;20037;-70
2022/05/07 02:23:00;;;;;;;3.65;2.05;;;;;;;15.73;58.03;101268.53;2077530;28;20045;-71
2022/05/07 02:24:22;;;;;;;3.50;1.60;;;;;;;15.72;57.95;101255.22;2070427;28;20045;-70
2022/05/07 02:25:45;;;;;;;5.68;1.60;;;;;;;15.72;57.89;101257.88;2077398;28;20112;-70
2022/05/07 02:27:06;;;;;;;4.55;1.65;;;;;;;15.73;57.84;101263.22;2076889;28;20049;-70
2022/05/07 02:28:28;;;;;;;5.65;1.90;;;;;;;15.73;57.72;101265.88;2070125;28;20045;-70
2022/05/07 02:29:51;;;;;;;3.40;1.85;;;;;;;15.73;57.70;101265.00;2088035;28;20037;-70
2022/05/07 02:31:18;;;;;;;3.95;1.75;;;;;;;15.69;57.67;101266.75;2080713;28;20200;-71
2022/05/07 02:32:41;;;;;;;3.22;1.67;;;;;;;15.63;57.67;101266.72;2061917;28;20419;-71
2022/05/07 02:34:04;;;;;;;6.85;1.80;;;;;;;15.52;57.65;101264.03;2066334;28;20431;-71
2022/05/07 02:35:27;;;;;;;3.92;1.80;;;;;;;15.43;57.81;101258.63;2079266;28;20045;-70
2022/05/07 02:36:48;;;;;;;4.47;1.67;;;;;;;15.34;57.93;101261.28;2077095;28;20131;-71
2022/05/07 02:38:13;;;;;;;4.38;1.70;;;;;;;15.33;58.00;101262.16;2075324;28;20057;-71
2022/05/07 02:39:35;;;;;;;6.47;2.10;;;;;;;15.30;58.06;101258.59;2079713;28;20132;-71
2022/05/07 02:42:39;;;;;;;4.05;1.40;;;;;;;15.25;58.17;101255.03;2072761;28;20054;-70
2022/05/07 02:44:11;;;;;;;4.50;1.70;;;;;;;15.23;58.11;101251.50;2075312;28;20037;-70
2022/05/07 02:45:34;;;;;;;5.88;1.70;;;;;;;15.21;58.08;101254.13;2077001;28;20045;-71
2022/05/07 02:46:58;;;;;;;5.95;1.80;;;;;;;15.22;57.93;101247.03;2075814;28;20042;-71
2022/05/07 02:48:21;;;;;;;5.82;2.17;;;;;;;15.22;57.93;101242.63;2088252;28;20200;-71
2022/05/07 02:49:43;;;;;;;4.78;1.85;;;;;;;15.22;57.72;101247.94;2077493;28;20144;-71
2022/05/07 02:51:09;;;;;;;5.63;2.25;;;;;;;15.23;57.60;101244.38;2073242;28;20226;-70
2022/05/07 02:52:33;;;;;;;4.30;1.48;;;;;;;15.23;57.47;101247.03;2074464;28;20180;-70
2022/05/07 02:53:59;;;;;;;4.20;1.73;;;;;;;15.24;57.32;101239.94;2075060;28;20057;-71
2022/05/07 02:55:22;;;;;;;3.00;1.55;;;;;;;15.24;57.29;101245.25;2066893;28;20132;-71
2022/05/07 02:56:46;;;;;;;4.07;2.05;;;;;;;15.22;57.37;101239.97;2078682;28;20037;-70
2022/05/07 02:58:09;;;;;;;8.38;3.15;;;;;;;15.19;57.22;101239.94;2075321;28;20164;-70
2022/05/07 02:59:34;;;;;;;6.20;2.08;;;;;;;15.13;57.43;101246.13;2084416;28;20499;-70
2022/05/07 03:00:57;;;;;;;3.80;2.28;;;;;;;15.09;57.53;101240.78;2070646;28;20129;-71
2022/05/07 03:02:19;;;;;;;4.30;1.75;;;;;;;15.01;57.76;101255.81;2075466;28;20392;-70
2022/05/07 03:03:42;;;;;;;5.43;2.20;;;;;;;14.99;57.94;101252.22;2082762;28;20139;-70
2022/05/07 03:05:05;;;;;;;5.65;1.80;;;;;;;14.98;57.99;101254.00;2076202;28;20042;-70
2022/05/07 03:06:26;;;;;;;3.22;1.40;;;;;;;14.96;58.08;101246.91;2084849;28;20032;-70
2022/05/07 03:07:49;;;;;;;6.75;2.60;;;;;;;14.94;57.97;101254.00;2075526;28;20161;-71
2022/05/07 03:09:17;;;;;;;5.15;1.65;;;;;;;14.94;57.82;101249.56;2078483;28;20050;-71
2022/05/07 03:10:39;;;;;;;5.63;1.80;;;;;;;14.93;57.75;101253.09;2073660;28;20558;-71
2022/05/07 03:12:02;;;;;;;4.40;1.60;;;;;;;14.95;57.61;101259.31;2067803;28;20050;-71
2022/05/07 03:13:25;;;;;;;5.85;2.70;;;;;;;14.95;57.58;101259.31;2075038;28;20442;-70
2022/05/07 03:14:48;;;;;;;4.72;2.67;;;;;;;14.94;57.50;101254.88;2081224;28;20041;-70
2022/05/07 03:16:09;;;;;;;8.63;1.52;;;;;;;14.94;57.54;101256.66;2069899;28;20076;-70
2022/05/07 03:17:34;;;;;;;4.25;1.85;;;;;;;14.93;57.56;101249.53;2075119;28;20172;-70
2022/05/07 03:18:58;;;;;;;5.65;1.90;;;;;;;14.89;57.63;101253.97;2071444;28;20050;-71
2022/05/07 03:20:21;;;;;;;5.63;2.08;;;;;;;14.87;57.63;101254.84;2079817;28;20046;-71
2022/05/07 03:21:46;;;;;;;4.40;2.67;;;;;;;14.81;57.76;101253.03;2076637;28;20069;-71
2022/05/07 03:23:11;;;;;;;6.10;2.00;;;;;;;14.77;57.85;101249.44;2079737;28;20412;-70
2022/05/07 03:24:37;;;;;;;3.97;1.25;;;;;;;14.82;57.82;101257.47;2072024;28;20563;-70
2022/05/07 03:26:00;;;;;;;7.10;2.45;;;;;;;14.82;57.59;101252.16;2086040;28;20110;-70
2022/05/07 03:27:22;;;;;;;4.68;1.38;;;;;;;14.82;57.52;101253.91;2082020;28;20057;-70
2022/05/07 03:28:44;;;;;;;4.13;1.85;;;;;;;14.81;57.46;101253.03;2082287;28;20046;-70
2022/05/07 03:30:11;;;;;;;4.75;1.80;;;;;;;14.83;57.46;101258.38;2072404;28;20068;-70
2022/05/07 03:31:51;;;;;;;3.72;1.60;;;;;;;14.82;57.32;101254.81;2081897;28;20052;-71
2022/05/07 03:33:14;;;;;;;7.72;2.35;;;;;;;14.86;57.23;101259.25;2075241;28;20464;-70
2022/05/07 03:34:40;;;;;;;6.05;1.88;;;;;;;14.86;57.13;101259.25;2070170;28;20037;-70
2022/05/07 03:36:01;;;;;;;6.25;1.83;;;;;;;14.88;57.04;101262.81;2079787;28;20096;-71
2022/05/07 03:37:23;;;;;;;4.95;2.05;;;;;;;14.91;57.06;101254.84;2078627;28;20045;-71
2022/05/07 03:38:45;;;;;;;3.45;1.60;;;;;;;14.95;56.96;101264.63;2087998;28;20726;-71
2022/05/07 03:40:14;;;;;;;4.85;1.70;;;;;;;15.01;56.99;101263.78;2082090;28;20045;-71
2022/05/07 03:41:38;;;;;;;3.17;1.80;;;;;;;15.07;56.90;101264.72;2074235;28;20166;-70
2022/05/07 03:43:01;;;;;;;6.15;1.70;;;;;;;15.12;56.91;101267.38;2084790;28;20633;-71
2022/05/07 03:44:23;;;;;;;4.15;2.25;;;;;;;15.14;56.81;101261.19;2075345;28;20501;-71
2022/05/07 03:45:50;;;;;;;3.40;1.42;;;;;;;15.20;56.63;101270.06;2085788;28;20117;-71
2022/05/07 03:47:13;;;;;;;5.70;1.60;;;;;;;15.18;56.47;101261.19;2079679;28;20049;-71
2022/05/07 03:48:37;;;;;;;3.75;1.50;;;;;;;15.22;56.30;101260.34;2084100;28;20428;-70
2022/05/07 03:50:01;;;;;;;4.22;1.70;;;;;;;15.27;56.15;101258.59;2077898;28;20041;-71
2022/05/07 03:51:23;;;;;;;3.13;1.45;;;;;;;15.34;55.77;101263.06;2071374;28;20594;-71
2022/05/07 03:54:31;;;;;;;3.97;1.40;;;;;;;15.45;55.39;101263.97;2078853;28;20132;-71
2022/05/07 03:55:55;;;;;;;3.63;1.42;;;;;;;15.50;55.15;101260.44;2076446;28;20050;-71
2022/05/07 03:57:25;;;;;;;3.00;1.45;;;;;;;15.57;55.18;101269.38;2079071;28;20069;-71
2022/05/07 03:58:48;;;;;;;5.07;1.70;;;;;;;15.66;54.96;101271.19;2076767;28;20502;-71
2022/05/07 04:00:21;;;;;;;5.13;2.03;;;;;;;15.75;54.82;101266.75;2076849;28;20098;-71
2022/05/07 04:01:48;;;;;;;6.90;1.75;;;;;;;15.83;54.70;101267.66;2086235;28;20060;-71
2022/05/07 04:03:10;;;;;;;7.55;4.25;;;;;;;15.90;54.48;101266.78;2078106;28;20046;-71
2022/05/07 04:04:42;;;;;;;3.90;1.40;;;;;;;15.95;54.29;101265.03;2082637;28;20498;-71
2022/05/07 04:06:06;;;;;;;5.38;1.55;;;;;;;16.05;54.16;101271.28;2079706;28;20459;-71
2022/05/07 04:07:29;;;;;;;4.72;1.70;;;;;;;16.16;54.06;101269.50;2077442;28;20533;-71
2022/05/07 04:09:00;;;;;;;4.75;1.35;;;;;;;16.29;53.81;101267.72;2079610;28;20054;-71
2022/05/07 04:10:22;;;;;;;3.85;1.52;;;;;;;16.43;53.63;101271.28;2085101;28;20522;-71
2022/05/07 04:11:46;;;;;;;4.47;1.60;;;;;;;16.57;53.48;101266.84;2078758;28;20105;-71
2022/05/07 04:13:10;;;;;;;3.70;1.88;;;;;;;16.65;53.31;101266.88;2075394;28;20057;-70
2022/05/07 04:14:32;;;;;;;;;;;;;;;16.81;53.14;101270.38;2091725;28;20132;-71
2022/05/07 04:15:57;;;;;;;4.38;1.58;;;;;;;16.92;53.09;101268.59;2081616;28;19971;-71
2022/05/07 04:17:20;;;;;;;3.85;1.98;;;;;;;17.07;53.30;101273.88;2077230;28;20041;-70
2022/05/07 04:18:46;;;;;;;5.88;1.58;;;;;;;17.24;53.31;101272.06;2078348;28;20045;-71
2022/05/07 04:20:12;;;;;;;5.63;1.77;;;;;;;17.41;53.18;101269.31;2071401;28;20519;-71
2022/05/07 04:21:37;;;;;;;4.88;1.70;;;;;;;17.56;53.06;101273.72;2078317;28;20081;-71
2022/05/07 04:23:07;;;;;;;4.05;2.55;;;;;;;17.72;52.95;101278.13;2083123;28;20037;-70
2022/05/07 04:24:33;;;;;;;3.30;1.80;;;;;;;17.85;52.95;101279.84;2079286;28;20049;-71
2022/05/07 04:25:56;;;;;;;4.18;1.67;;;;;;;18.00;52.84;101271.69;2075022;28;20050;-71
2022/05/07 04:27:22;;;;;;;2.88;1.95;;;;;;;18.16;52.80;101272.50;2071483;28;20049;-71
2022/05/07 04:28:50;;;;;;;3.03;1.65;;;;;;;18.26;52.57;101275.06;2078124;28;20384;-71
2022/05/07 04:30:14;;;;;;;4.75;2.15;;;;;;;18.40;52.42;101276.75;2070922;28;20054;-71
2022/05/07 04:31:36;;;;;;;5.50;1.73;;;;;;;18.51;52.37;101270.41;2087836;28;20136;-71
2022/05/07 04:33:03;;;;;;;5.57;1.83;;;;;;;18.66;52.08;101278.34;2077587;28;20149;-71
2022/05/07 04:34:26;;;;;;;4.95;1.55;;;;;;;18.79;51.75;101280.88;2077028;28;20057;-71
2022/05/07 04:35:49;;;;;;;5.35;1.80;;;;;;;18.92;51.73;101283.41;2076923;28;20050;-72
2022/05/07 04:37:14;;;;;;;6.47;1.80;;;;;;;19.08;51.37;101278.81;2084654;28;20044;-72
2022/05/07 04:38:38;;;;;;;7.97;2.25;;;;;;;19.25;51.04;101283.97;2075259;28;20107;-73
2022/05/07 04:39:59;;;;;;;6.93;1.75;;;;;;;19.37;50.73;101282.00;2076695;28;20041;-72
2022/05/07 04:41:22;;;;;;;5.78;1.77;;;;;;;19.53;50.66;101287.22;2078575;28;20045;-71
2022/05/07 04:42:46;;;;;;;5.85;2.03;;;;;;;19.71;50.51;101293.22;2081214;28;20122;-71
2022/05/07 04:44:09;;;;;;;6.38;2.08;;;;;;;19.80;50.08;101290.44;2079252;28;20053;-71
2022/05/07 04:45:33;;;;;;;5.35;1.60;;;;;;;19.86;49.96;101290.34;2076772;28;20049;-71
2022/05/07 04:47:00;;;;;;;4.35;1.88;;;;;;;20.01;49.65;101293.72;2076779;28;20511;-72
2022/05/07 04:48:23;;;;;;;5.97;1.83;;;;;;;20.18;49.52;101291.66;2071063;28;20054;-71
2022/05/07 04:49:44;;;;;;;10.07;1.92;;;;;;;20.39;49.11;101298.53;2076636;28;20515;-71
2022/05/07 04:51:07;;;;;;;6.47;1.80;;;;;;;20.54;48.40;101291.13;2078069;28;20053;-71
2022/05/07 04:52:35;;;;;;;5.95;1.85;;;;;;;20.71;48.44;101290.81;2083147;28;20506;-71
2022/05/07 04:53:57;;;;;;;6.80;1.92;;;;;;;20.89;48.06;101292.28;2086695;28;20045;-71
2022/05/07 04:55:20;;;;;;;6.35;1.80;;;;;;;21.04;47.66;101300.06;2072997;28;20061;-71
2022/05/07 04:56:49;;;;;;;4.97;1.75;;;;;;;21.21;46.76;101289.91;2070004;28;20050;-71
2022/05/07 04:58:13;;;;;;;5.00;1.98;;;;;;;21.39;45.92;101286.88;2070427;28;20297;-71
2022/05/07 04:59:36;;;;;;;5.72;1.80;;;;;;;21.59;45.30;101293.63;2076875;28;20069;-71
2022/05/07 05:01:06;;;;;;;5.30;2.15;;;;;;;21.80;45.09;101295.81;2076416;28;20148;-70
2022/05/07 05:02:35;;;;;;;5.32;1.95;;;;;;;21.99;44.76;101290.97;2072967;28;20135;-71
2022/05/07 05:04:00;;;;;;;7.70;1.50;;;;;;;22.18;44.20;101301.28;2076974;28;20506;-71
2022/05/07 05:05:27;;;;;;;5.50;1.83;;;;;;;22.34;43.77;101296.38;2076246;28;20037;-71
2022/05/07 05:07:06;;;;;;;6.63;2.28;;;;;;;22.49;43.49;101292.44;2080877;28;20057;-71
2022/05/07 05:08:32;;;;;;;9.93;2.03;;;;;;;22.72;42.99;101302.63;2073615;28;20056;-71
2022/05/07 05:09:56;;;;;;;6.78;1.70;;;;;;;22.96;42.47;101304.72;2070905;28;20519;-71
2022/05/07 05:11:29;;;;;;;7.50;1.90;;;;;;;23.09;41.81;101300.78;2070787;28;20104;-70
2022/05/07 05:12:51;;;;;;;7.25;2.08;;;;;;;23.27;41.44;101300.25;2082131;28;20085;-71
2022/05/07 05:15:59;;;;;;;5.78;2.40;;;;;;;23.80;40.49;101297.84;2081176;28;20393;-71
2022/05/07 05:17:47;;;;;;;7.30;2.05;;;;;;;24.03;40.16;101303.38;2087980;28;20391;-70
2022/05/07 05:19:09;;;;;;;4.47;1.77;;;;;;;24.21;39.65;101299.28;2078280;28;20961;-70
2022/05/07 05:20:31;;;;;;;5.95;1.73;;;;;;;24.36;39.40;101296.06;2082982;28;20784;-70
2022/05/07 05:22:01;;;;;;;5.18;1.90;;;;;;;24.58;39.11;101299.81;2084303;28;20107;-70
2022/05/07 05:23:28;;;;;;;6.18;1.70;;;;;;;24.74;38.39;101304.72;2081478;28;20073;-71
2022/05/07 05:24:49;;;;;;;8.48;2.08;;;;;;;24.67;38.18;101301.34;2083300;28;20396;-71
2022/05/07 05:26:12;;;;;;;4.75;2.05;;;;;;;24.75;37.88;101301.94;2077207;28;20080;-70
2022/05/07 05:27:42;;;;;;;10.55;2.53;;;;;;;24.85;37.68;101305.22;2079438;28;20049;-70
2022/05/07 05:29:04;;;;;;;6.55;1.83;;;;;;;24.86;37.00;101298.88;2069991;28;20057;-70
2022/05/07 05:30:28;;;;;;;;;;;;;;;24.90;36.95;101304.16;2068745;28;20054;-70
2022/05/07 05:31:58;;;;;;;5.22;1.85;;;;;;;24.71;37.28;101308.41;2070228;28;20276;-71
2022/05/07 05:33:25;;;;;;;6.88;1.70;;;;;;;24.42;37.54;101312.06;2072258;28;20639;-71
2022/05/07 05:35:03;;;;;;;6.47;1.58;;;;;;;24.63;37.14;101305.94;2082970;28;20160;-71
2022/05/07 05:36:31;;;;;;;7.32;2.17;;;;;;;24.93;36.62;101312.16;2078092;28;20617;-71
2022/05/07 05:37:54;;;;;;;6.07;1.75;;;;;;;25.22;35.86;101315.63;2078711;28;20565;-71
2022/05/07 05:39:17;;;;;;;6.07;2.15;;;;;;;25.15;35.83;101309.56;2078612;28;20064;-71
2022/05/07 05:40:42;;;;;;;5.78;1.90;;;;;;;25.29;35.92;101314.47;2083117;28;20041;-71
2022/05/07 05:42:06;;;;;;;5.93;1.88;;;;;;;25.45;35.69;101307.59;2077080;28;20060;-71
2022/05/07 05:43:32;;;;;;;8.02;1.73;;;;;;;25.40;35.59;101306.88;2083294;28;20056;-71
2022/05/07 05:44:55;;;;;;;5.47;1.90;;;;;;;25.56;35.38;101307.16;2075565;28;20045;-71
2022/05/07 05:46:22;;;;;;;9.60;3.60;;;;;;;25.70;35.58;101307.56;2083688;28;20064;-71
2022/05/07 05:47:45;;;;;;;5.13;1.67;;;;;;;25.88;34.99;101312.25;2079945;28;20045;-71
2022/05/07 05:49:08;;;;;;;6.20;1.70;;;;;;;26.00;34.77;101317.19;2067800;28;20057;-71
2022/05/07 05:50:33;;;;;;;8.45;1.77;;;;;;;26.11;34.18;101305.94;2075959;28;20590;-71
2022/05/07 05:51:56;;;;;;;5.07;1.50;;;;;;;26.27;34.33;101311.66;2073893;28;20099;-71
2022/05/07 05:53:19;;;;;;;6.50;1.90;;;;;;;26.39;33.99;101319.25;2081246;28;20522;-71
2022/05/07 05:54:46;;;;;;;6.20;2.03;;;;;;;26.44;33.93;101314.56;2076478;28;20037;-71
2022/05/07 05:56:09;;;;;;;8.38;1.90;;;;;;;26.56;34.13;101319.47;2075947;28;20155;-71
2022/05/07 05:57:37;;;;;;;6.55;1.63;;;;;;;26.71;34.16;101312.53;2077901;28;20034;-70
2022/05/07 05:59:01;;;;;;;6.13;2.03;;;;;;;26.83;34.03;101321.03;2074127;28;20046;-71
2022/05/07 06:00:28;;;;;;;6.22;1.80;;;;;;;26.81;33.87;101305.75;2078283;28;20052;-71
2022/05/07 06:01:52;;;;;;;4.90;1.70;;;;;;;26.62;34.07;101299.38;2085512;28;20099;-71
2022/05/07 06:03:29;;;;;;;6.03;2.22;;;;;;;26.09;34.68;101297.88;2077789;28;20051;-71
2022/05/07 06:04:52;;;;;;;9.23;2.08;;;;;;;25.91;34.95;101304.03;2075269;28;20083;-71
2022/05/07 06:06:18;;;;;;;6.20;2.00;;;;;;;26.11;35.02;101301.44;2082871;28;20057;-71
2022/05/07 06:07:40;;;;;;;10.50;1.88;;;;;;;26.25;34.52;101300.03;2072302;28;20107;-72
2022/05/07 06:09:04;;;;;;;7.43;2.88;;;;;;;26.03;34.79;101300.84;2084325;28;20522;-71
2022/05/07 06:10:27;;;;;;;6.05;1.92;;;;;;;25.90;34.78;101295.97;2073472;28;20443;-71
2022/05/07 06:11:51;;;;;;;5.50;1.90;;;;;;;25.95;34.93;101302.97;2073947;28;20072;-71
2022/05/07 06:13:14;;;;;;;8.48;1.70;;;;;;;26.13;34.83;101315.75;2075504;28;20523;-71
2022/05/07 06:14:43;;;;;;;6.57;2.20;;;;;;;26.34;34.49;101308.63;2075878;28;20056;-71
2022/05/07 06:16:06;;;;;;;6.40;1.83;;;;;;;26.45;34.39;101317.19;2075297;28;20542;-71
2022/05/07 06:17:29;;;;;;;5.20;1.85;;;;;;;26.60;34.22;101315.69;2070028;28;20558;-71
2022/05/07 06:18:51;;;;;;;9.57;1.83;;;;;;;26.76;34.13;101311.38;2078272;28;20056;-71
2022/05/07 06:20:13;;;;;;;10.18;2.15;;;;;;;26.89;33.97;101306.34;2078117;28;20415;-71
2022/05/07 06:21:42;;;;;;;8.52;1.80;;;;;;;26.90;34.22;101303.59;2078924;28;20399;-71
2022/05/07 06:23:04;;;;;;;7.32;1.83;;;;;;;26.86;34.31;101296.47;2078180;28;20041;-71
2022/05/07 06:28:03;;;;;;;5.55;1.90;;;;;;;26.97;34.37;101296.06;2072811;28;20578;-71
2022/05/07 06:29:31;;;;;;;13.15;2.72;;;;;;;26.96;34.30;101297.88;2077556;28;20045;-71
2022/05/07 06:30:54;;;;;;;6.75;1.95;;;;;;;26.89;34.37;101301.81;2075957;28;20088;-72
2022/05/07 06:32:19;;;;;;;4.13;1.45;;;;;;;26.84;34.42;101306.53;2080022;28;20552;-71
2022/05/07 06:33:43;;;;;;;5.78;2.05;;;;;;;26.75;34.32;101306.91;2077563;28;20517;-72
2022/05/07 06:35:09;;;;;;;9.15;2.00;;;;;;;26.83;34.60;101312.88;2077437;28;20054;-71
2022/05/07 06:36:43;;;;;;;6.43;1.92;;;;;;;26.93;34.68;101311.56;2078498;28;20045;-72
2022/05/07 06:38:06;;;;;;;8.43;2.00;;;;;;;27.05;34.42;101311.97;2075342;28;20586;-71
2022/05/07 06:39:30;;;;;;;6.40;1.60;;;;;;;27.09;34.49;101308.19;2075835;28;20046;-71
2022/05/07 06:40:56;;;;;;;7.30;2.38;;;;;;;27.11;34.58;101301.72;2070108;28;20069;-71
2022/05/07 06:42:19;;;;;;;9.50;2.13;;;;;;;27.11;34.64;101304.44;2071909;28;20053;-71
2022/05/07 06:43:52;;;;;;;5.90;2.13;;;;;;;27.08;34.95;101307.31;2082226;28;20183;-71
2022/05/07 06:45:26;;;;;;;4.85;2.15;;;;;;;27.09;34.82;101308.19;2078061;28;20095;-71
2022/05/07 06:46:49;;;;;;;7.28;1.90;;;;;;;27.13;34.60;101304.38;2072864;28;20070;-71